Tiempo atmosférico en la estación meteorológica de Villafáfila, Zamora (690 m.)



Fecha
DESCASC
Temp. máxima en grados centígrados (hora)
DESCASC
Temp. mínima en grados centígrados (hora)
DESCASC
Temp. media en grados centígrados
DESCASC
Racha de viento máxima en m/sg (hora)
DESCASC
Velocidad máxima media en intervalos de 10 minutos(hora)
DESCASC
Precipitaciones diarias en mm
DESCASC
Precipitaciones de 00:00 a 06:00 en mm
DESCASC
Precipitaciones de 06:00 a 12:00 en mm
DESCASC
Precipitaciones de 12:00 a 18:00 en mm
DESCASC
Precipitaciones de 18:00 a 24:00 en mm
DESCASC
25-02-2021 13.9 (16:30) 6.3 (08:00) 10.1 9.17 (03:50) 6.11 (03:10) 0 0 0 0 0
24-02-2021 16.3 (17:20) -0.7 (06:00) 7.8 6.11 (16:30) 4.17 (16:30) 0 0 0 0 0
23-02-2021 14 (16:40) -2.8 (07:30) 5.6 6.11 (23:10) 4.17 (16:20) 0 0 0 0 0
22-02-2021 11.6 (17:10) -0.4 (08:30) 5.6 5.83 (12:50) 3.06 (19:40) 0 0 0 0 0
21-02-2021 11 (10:50) 4.1 (00:00) 7.5 16.11 (07:50) 9.44 (07:50) 6 0 0 5.2 0.8
20-02-2021 13.9 (15:10) 4.1 (00:00) 9 14.72 (11:50) 10.83 (11:10) 0 0 0 0 0
19-02-2021 14.5 (14:50) 6.2 (00:00) 10.3 11.94 (15:30) 7.5 (16:10) 2.4 2.4 0 0 0
18-02-2021 12.8 (16:00) 7 (00:00) 9.9 15.28 (12:00) 10.28 (12:30) 1.2 0 0 1.2 0
17-02-2021 13 (16:10) 5.9 (00:00) 9.5 9.72 (13:00) 6.67 (13:10) 0.6 0.2 0 0.4 0
16-02-2021 12.7 (14:40) 0.6 (00:00) 6.6 12.5 (12:10) 7.78 (12:20) 1 0 0 1 0
15-02-2021 16.5 (16:30) 1.3 (00:00) 8.9 4.17 (16:10) 3.06 (02:30) 0 0 0 0 0
14-02-2021 15 (17:10) 2.1 (00:00) 8.5 5 (15:20) 3.06 (15:20) 0 0 0 0 0
13-02-2021 14.7 (17:40) 4 (00:00) 9.3 6.67 (16:40) 4.44 (16:40) 0 0 0 0 0
12-02-2021 15 (16:30) 5.4 (00:00) 10.2 11.39 (11:50) 8.33 (11:40) 2.8 2.6 0 0.2 0
11-02-2021 14.6 (16:00) 6.7 (00:00) 10.7 10.28 (15:20) 6.67 (15:30) 0.4 0 0 0.4 0
10-02-2021 11.9 (16:30) 3 (00:00) 7.4 17.5 (02:50) 8.89 (02:40) 1.2 1 0 0 0.2
09-02-2021 7.4 (09:40) 4 (00:00) 5.7 16.67 (12:50) 12.5 (11:00) 13.2 0.8 9.8 1.6 1
08-02-2021 8.6 (16:30) 4.5 (00:00) 6.6 14.72 (15:20) 10.28 (15:10) 1 0.8 0 0.2 0
07-02-2021 6.2 (13:00) 1.2 (00:00) 3.7 11.67 (16:50) 7.78 (17:20) 0.6 0 0 0.2 0.4
06-02-2021 8.4 (16:00) 4.4 (00:00) 6.4 12.78 (07:50) 7.78 (00:20) 12.2 8.8 3.4 0 0
05-02-2021 10.5 (15:40) 5.6 (00:00) 8 10 (23:59) 7.22 (23:50) 9.6 1.8 5 0 2.8
04-02-2021 7.8 (00:50) 5 (00:00) 6.4 5.83 (00:20) 4.17 (00:20) 10.2 0 1.2 7.6 1.4
03-02-2021 12.8 (16:30) 6.8 (00:00) 9.8 16.11 (04:50) 8.89 (01:00) 0.2 0 0.2 0 0
02-02-2021 11.9 (12:50) 8.4 (08:30) 10.1 16.39 (12:50) 9.44 (12:50) 0 0 0 0 0
01-02-2021 14.7 (15:10) 7.4 (00:00) 11 16.67 (01:50) 11.39 (00:30) 0 0 0 0 0
31-01-2021 16.4 (16:10) 5.6 (00:00) 11 18.33 (15:30) 12.22 (14:20) 0 0 0 0 0
30-01-2021 10.6 (00:00) 6 (00:00) 8.3 20.28 (11:50) 14.72 (12:00) 2.8 2.4 0.4 0 0
29-01-2021 15.7 (15:30) 8.5 (00:00) 12.1 10.28 (09:50) 7.5 (21:30) 0 0 0 0 0
28-01-2021 17.3 (15:50) 10.4 (00:00) 13.8 11.39 (16:30) 7.78 (16:40) 0 0 0 0 0

Gráficas

Temp. máximas Temp. mínimas Temp. medias Precipitaciones Rachas de viento máximas Velocidades máximas media en intervalos de 10 minutos

Datos horarios

Fecha y hora oficial Temperatura (ºC) Velocidad del viento (km/h) Dirección del viento Racha (km/h) Dirección de racha Precipitación (mm) Presión (hPa) Tendencia (hPa) Humedad (%)
2021-02-26 23:00:00 7.5 11 Nordeste 23 Nordeste 0 -- -- 87
2021-02-26 22:00:00 8.3 16 Nordeste 22 Nordeste 0 -- -- 84
2021-02-26 21:00:00 9 16 Nordeste 22 Nordeste 0 -- -- 82
2021-02-26 20:00:00 10 12 Nordeste 18 Nordeste 0 -- -- 79
2021-02-26 19:00:00 12 14 Nordeste 19 Nordeste 0 -- -- 75
2021-02-26 18:00:00 14.1 13 Nordeste 24 Nordeste 0 -- -- 67
2021-02-26 17:00:00 15 14 Nordeste 26 Este 0 -- -- 60
2021-02-26 16:00:00 15.4 17 Nordeste 28 Este 0 -- -- 61
2021-02-26 15:00:00 15.2 17 Nordeste 27 Nordeste 0 -- -- 63
2021-02-26 14:00:00 14 19 Nordeste 32 Este 0 -- -- 67
2021-02-26 13:00:00 12.8 24 Nordeste 35 Nordeste 0 -- -- 69
2021-02-26 12:00:00 11.8 24 Nordeste 36 Nordeste 0 -- -- 72
2021-02-26 11:00:00 10.9 19 Nordeste 37 Nordeste 0 -- -- 74
2021-02-26 10:00:00 8.7 28 Nordeste 41 Nordeste 0 -- -- 82
2021-02-26 09:00:00 7.1 25 Nordeste 40 Nordeste 0 -- -- 87
2021-02-26 08:00:00 6.4 13 Nordeste 19 Nordeste 0 -- -- 89
2021-02-26 07:00:00 6.6 14 Nordeste 24 Nordeste 0 -- -- 88
2021-02-26 06:00:00 6.8 16 Nordeste 24 Nordeste 0 -- -- 88
2021-02-26 05:00:00 6.8 14 Nordeste 26 Nordeste 0 -- -- 89
2021-02-26 04:00:00 7 18 Nordeste 31 Este 0 -- -- 88
2021-02-26 03:00:00 7.3 23 Nordeste 34 Este 0 -- -- 87
2021-02-26 02:00:00 7.8 19 Nordeste 33 Nordeste 0 -- -- 85
2021-02-26 01:00:00 8.3 23 Nordeste 39 Nordeste 0 -- -- 83
2021-02-26 00:00:00 8.3 22 Nordeste 32 Nordeste 0 -- -- 84
2021-02-25 23:00:00 8.7 22 Nordeste 32 Nordeste 0 -- -- 82
2021-02-25 22:00:00 9.1 19 Nordeste 28 Nordeste 0 -- -- 83
2021-02-25 21:00:00 8.7 9 Norte 15 Norte 0 -- -- 84
2021-02-25 20:00:00 9.4 9 Norte 14 Norte 0 -- -- 83
2021-02-25 19:00:00 11.2 11 Nordeste 18 Nordeste 0 -- -- 76
2021-02-25 18:00:00 12.6 12 Nordeste 15 Nordeste 0 -- -- 70
2021-02-25 17:00:00 13.7 8 Nordeste 13 Norte 0 -- -- 63
2021-02-25 16:00:00 13.7 6 Nordeste 12 Este 0 -- -- 64
2021-02-25 15:00:00 13.2 4 Norte 6 Nordeste 0 -- -- 65
2021-02-25 14:00:00 12.7 3 Este 12 Este 0 -- -- 67
2021-02-25 13:00:00 12.4 9 Sudeste 15 Este 0 -- -- 71
2021-02-25 12:00:00 10.9 10 Sudeste 18 Este 0 -- -- 76
2021-02-25 11:00:00 9.2 10 Sudeste 16 Este 0 -- -- 81
2021-02-25 10:00:00 7.7 6 Este 12 Este 0 -- -- 87
2021-02-25 09:00:00 6.4 0 Calma 9 Sudoeste 0 -- -- 87
2021-02-25 08:00:00 6.3 9 Oeste 21 Sudeste 0 -- -- 87
2021-02-25 07:00:00 6.6 8 Sur 21 Sur 0 -- -- 87
2021-02-25 06:00:00 7.1 7 Sur 27 Sudeste 0 -- -- 85
2021-02-25 05:00:00 7.3 11 Sudeste 23 Sudeste 0 -- -- 85
2021-02-25 04:00:00 7.9 18 Sudeste 33 Sudeste 0 -- -- 82
2021-02-25 03:00:00 9 22 Sudeste 28 Sudeste 0 -- -- 79
2021-02-25 02:00:00 9.1 18 Sudeste 27 Sudeste 0 -- -- 81
2021-02-25 01:00:00 9 17 Sudeste 26 Sudeste 0 -- -- 85
2021-02-25 00:00:00 7.9 8 Sudeste 16 Sudeste 0 -- -- 88
2021-02-24 23:00:00 5.8 10 Este 12 Este 0 -- -- 89
2021-02-24 22:00:00 6.9 5 Sur 9 Oeste 0 -- -- 84
2021-02-24 21:00:00 8 10 Sudeste 13 Sudeste 0 -- -- 79
2021-02-24 20:00:00 10.3 7 Sudoeste 11 Sudoeste 0 -- -- 72
2021-02-24 19:00:00 12.8 5 Sudoeste 17 Sudoeste 0 -- -- 66
2021-02-24 18:00:00 15.5 11 Sudoeste 18 Sudoeste 0 -- -- 56
2021-02-24 17:00:00 16.2 10 Sur 22 Sudeste 0 -- -- 49
2021-02-24 16:00:00 15.8 12 Sudoeste 22 Sur 0 -- -- 49
2021-02-24 15:00:00 15.4 8 Sur 18 Sur 0 -- -- 54
2021-02-24 14:00:00 14.5 10 Sur 17 Sudeste 0 -- -- 56
2021-02-24 13:00:00 13.2 11 Sudeste 22 Sur 0 -- -- 62
2021-02-24 12:00:00 11.4 11 Sudeste 18 Sudeste 0 -- -- 71
2021-02-24 11:00:00 8.9 4 Este 10 Este 0 -- -- 82
2021-02-24 10:00:00 4.6 5 Noroeste 8 Noroeste 0 -- -- 93
2021-02-24 09:00:00 1.7 0 Calma 6 Sur 0 -- -- 94
2021-02-24 08:00:00 1.4 4 Sur 10 Sudeste 0 -- -- 94
2021-02-24 07:00:00 -0.3 7 Este 9 Este 0 -- -- 94
2021-02-24 06:00:00 -0.7 5 Este 6 Este 0 -- -- 92
2021-02-24 05:00:00 0 0 Calma 5 Noroeste 0 -- -- 92
2021-02-24 04:00:00 0.2 4 Nordeste 8 Este 0 -- -- 91
2021-02-24 03:00:00 1 0 Calma 4 Este 0 -- -- 91
2021-02-24 02:00:00 1.5 3 Sudeste 7 Sudeste 0 -- -- 89
2021-02-24 01:00:00 2.5 3 Sudeste 5 Sudoeste 0 -- -- 86
2021-02-24 00:00:00 4.8 4 Sudoeste 22 Sudeste 0 -- -- 82
2021-02-23 23:00:00 5.3 9 Sudoeste 17 Sudeste 0 -- -- 84
2021-02-23 22:00:00 5 5 Sudeste 14 Nordeste 0 -- -- 83
2021-02-23 21:00:00 4.6 7 Nordeste 10 Nordeste 0 -- -- 77
2021-02-23 20:00:00 7 8 Este 11 Este 0 -- -- 71
2021-02-23 19:00:00 11.4 10 Este 14 Sudeste 0 -- -- 58
2021-02-23 18:00:00 13.8 9 Sudeste 18 Sudeste 0 -- -- 45
2021-02-23 17:00:00 13.9 9 Sudeste 22 Sur 0 -- -- 44
2021-02-23 16:00:00 13.6 12 Sudeste 20 Sudeste 0 -- -- 50
2021-02-23 15:00:00 13.1 11 Sudeste 22 Sudeste 0 -- -- 49
2021-02-23 14:00:00 12.5 11 Sudeste 18 Sudeste 0 -- -- 52
2021-02-23 13:00:00 11 6 Este 12 Sudeste 0 -- -- 62
2021-02-23 12:00:00 8.3 2 Este 8 Este 0 -- -- 73
2021-02-23 11:00:00 5.1 2 Noroeste 8 Noroeste 0 -- -- 78
2021-02-23 10:00:00 2.8 3 Nordeste 6 Este 0 -- -- 88
2021-02-23 09:00:00 -0.9 3 Nordeste 5 Nordeste 0 -- -- 95
2021-02-23 08:00:00 -2.7 0 Calma 5 Este 0 -- -- 92
2021-02-23 07:00:00 -2.6 2 Nordeste 6 Nordeste 0 -- -- 92
2021-02-23 06:00:00 -2.4 3 Nordeste 6 Norte 0 -- -- 91
2021-02-23 05:00:00 -2 0 Calma 4 Oeste 0 -- -- 91
2021-02-23 04:00:00 -1.6 3 Este 6 Este 0 -- -- 89
2021-02-23 03:00:00 -0.6 3 Sudoeste 8 Sudoeste 0 -- -- 87
2021-02-23 02:00:00 0.5 2 Sudoeste 8 Sur 0 -- -- 85
2021-02-23 01:00:00 0.4 2 Sudeste 9 Sudeste 0 -- -- 87
2021-02-23 00:00:00 1.1 3 Sudeste 8 Sur 0 -- -- 82
2021-02-22 23:00:00 2.5 3 Sudoeste 6 Sudoeste 0 -- -- 82
2021-02-22 22:00:00 4.5 5 Sur 12 Sudeste 0 -- -- 75
2021-02-22 21:00:00 4.6 8 Sudeste 20 Sudeste 0 -- -- 74
2021-02-22 20:00:00 4.9 10 Sudeste 13 Sudeste 0 -- -- 76
2021-02-22 19:00:00 8.1 10 Sudeste 14 Sudeste 0 -- -- 67
2021-02-22 18:00:00 11.2 10 Sur 18 Sudeste 0 -- -- 48
2021-02-22 17:00:00 11.5 8 Sur 19 Sudoeste 0 -- -- 46
2021-02-22 16:00:00 10.9 10 Sur 19 Sur 0 -- -- 50
2021-02-22 15:00:00 10.1 10 Sur 19 Sudeste 0 -- -- 56
2021-02-22 14:00:00 9.3 9 Sur 17 Sudoeste 0 -- -- 60
2021-02-22 13:00:00 8.5 8 Sur 21 Sur 0 -- -- 62
2021-02-22 12:00:00 7.1 4 Sudoeste 10 Oeste 0 -- -- 67
2021-02-22 11:00:00 5.3 5 Noroeste 9 Noroeste 0 -- -- 72
2021-02-22 10:00:00 2.6 4 Sur 9 Sudoeste 0 -- -- 86
2021-02-22 09:00:00 0.4 5 Sudoeste 8 Sur 0 -- -- 92
2021-02-22 08:00:00 -0.2 7 Sudoeste 12 Sudoeste 0 -- -- 92
2021-02-22 07:00:00 0.9 8 Sudoeste 13 Sudoeste 0 -- -- 88
2021-02-22 06:00:00 1.5 7 Sudoeste 13 Sudoeste 0 -- -- 87
2021-02-22 05:00:00 1.6 3 Sudoeste 6 Oeste 0 -- -- 90
2021-02-22 04:00:00 2.4 3 Noroeste 8 Oeste 0 -- -- 89
2021-02-22 03:00:00 3.6 8 Oeste 14 Oeste 0 -- -- 89
2021-02-22 02:00:00 4.1 10 Oeste 15 Oeste 0 -- -- 90
2021-02-22 01:00:00 4.1 8 Oeste 12 Oeste 0 -- -- 92
2021-02-22 00:00:00 4.1 0 Calma 9 Norte 0 -- -- 92
2021-02-21 23:00:00 4.5 8 Noroeste 18 Norte 0 -- -- 91
2021-02-21 22:00:00 4.9 12 Norte 25 Noroeste 0 -- -- 90
2021-02-21 21:00:00 5.5 18 Noroeste 28 Noroeste 0 -- -- 89
2021-02-21 20:00:00 5.7 9 Norte 17 Norte 0.2 -- -- 92
2021-02-21 19:00:00 6.1 6 Norte 10 Noroeste 0.6 -- -- 92
2021-02-21 18:00:00 6.2 8 Norte 15 Sudoeste 1.2 -- -- 91
2021-02-21 17:00:00 6.5 10 Sudoeste 19 Sudoeste 1.6 -- -- 90
2021-02-21 16:00:00 6.7 11 Sudoeste 21 Sudoeste 1.8 -- -- 90
2021-02-21 15:00:00 7.6 10 Sur 16 Sur 0.6 -- -- 86
2021-02-21 14:00:00 8 10 Sudoeste 17 Sudoeste 0 -- -- 81
2021-02-21 13:00:00 7.6 13 Sudoeste 28 Sudoeste 0 -- -- 84
2021-02-21 12:00:00 8 17 Sudoeste 32 Sudoeste 0 -- -- 85
2021-02-21 11:00:00 10.9 22 Sudeste 35 Sudeste 0 -- -- 69
2021-02-21 10:00:00 10.3 20 Sudeste 30 Sudeste 0 -- -- 68
2021-02-21 09:00:00 9.4 19 Sudeste 51 Sudeste 0 -- -- 69
2021-02-21 08:00:00 10.5 34 Sudeste 58 Sudeste 0 -- -- 60
2021-02-21 07:00:00 9.6 27 Sudeste 38 Sudeste 0 -- -- 66
2021-02-21 06:00:00 9.4 29 Sudeste 39 Sudeste 0 -- -- 67
2021-02-21 05:00:00 8.5 27 Sudeste 35 Este 0 -- -- 69
2021-02-21 04:00:00 6.4 12 Este 18 Nordeste 0 -- -- 79
2021-02-21 03:00:00 6.9 15 Nordeste 22 Nordeste 0 -- -- 74
2021-02-21 02:00:00 7.5 15 Este 20 Nordeste 0 -- -- 69
2021-02-21 01:00:00 8.3 13 Este 21 Sudeste 0 -- -- 66
2021-02-21 00:00:00 8.8 15 Sudeste 22 Sudeste 0 -- -- 63
2021-02-20 23:00:00 9.1 13 Sudeste 22 Sudeste 0 -- -- 65
2021-02-20 22:00:00 9.1 13 Este 21 Sudeste 0 -- -- 71
2021-02-20 21:00:00 9.7 14 Este 24 Sur 0 -- -- 71
2021-02-20 20:00:00 11.5 17 Sur 24 Sur 0 -- -- 56
2021-02-20 19:00:00 12.1 19 Sur 28 Sur 0 -- -- 58
2021-02-20 18:00:00 12.8 22 Sur 45 Sur 0 -- -- 57
2021-02-20 17:00:00 13.6 24 Sur 39 Sur 0 -- -- 54
2021-02-20 16:00:00 13.2 25 Sur 48 Sur 0 -- -- 55
2021-02-20 15:00:00 13.8 31 Sur 51 Sur 0 -- -- 54
2021-02-20 14:00:00 13 33 Sur 45 Sur 0 -- -- 59
2021-02-20 13:00:00 11.9 22 Sur 50 Sur 0 -- -- 60
2021-02-20 12:00:00 12.1 34 Sur 53 Sudeste 0 -- -- 61
2021-02-20 11:00:00 11.3 34 Sur 49 Sur 0 -- -- 68
2021-02-20 10:00:00 7.7 16 Sur 22 Sur 0 -- -- 78
2021-02-20 09:00:00 5.9 8 Sur 16 Sudeste 0 -- -- 84
2021-02-20 08:00:00 4.9 6 Sur 14 Sur 0 -- -- 85
2021-02-20 07:00:00 4.9 6 Sur 18 Sudeste 0 -- -- 87
2021-02-20 06:00:00 4.7 12 Sudeste 18 Sudeste 0 -- -- 89
2021-02-20 05:00:00 4.6 3 Sudeste 16 Sudeste 0 -- -- 86
2021-02-20 04:00:00 5.5 6 Sudeste 13 Sudeste 0 -- -- 87
2021-02-20 03:00:00 6.9 10 Sudeste 24 Sur 0 -- -- 81
2021-02-20 02:00:00 7.3 17 Sur 32 Sur 0 -- -- 84
2021-02-20 01:00:00 7.7 18 Sudeste 27 Sudeste 0 -- -- 83
2021-02-20 00:00:00 7.3 12 Sur 23 Sur 0 -- -- 84
2021-02-19 23:00:00 6.2 9 Sur 15 Sur 0 -- -- 85
2021-02-19 22:00:00 8 8 Sur 12 Sur 0 -- -- 80
2021-02-19 21:00:00 8.7 8 Sur 20 Sudeste 0 -- -- 77
2021-02-19 20:00:00 8.7 9 Sur 16 Sur 0 -- -- 77
2021-02-19 19:00:00 10.9 14 Sur 29 Sur 0 -- -- 68
2021-02-19 18:00:00 12 20 Sur 32 Sudoeste 0 -- -- 60
2021-02-19 17:00:00 12.2 22 Sudoeste 38 Sudoeste 0 -- -- 61
2021-02-19 16:00:00 12.8 24 Sudoeste 43 Sudoeste 0 -- -- 58
2021-02-19 15:00:00 14.4 24 Sudoeste 40 Sur 0 -- -- 52
2021-02-19 14:00:00 13.6 19 Sudoeste 35 Sur 0 -- -- 59
2021-02-19 13:00:00 13.2 22 Sur 38 Sur 0 -- -- 61
2021-02-19 12:00:00 11.3 20 Sur 31 Sur 0 -- -- 70
2021-02-19 11:00:00 10.1 17 Sur 28 Sur 0 -- -- 75
2021-02-19 10:00:00 8.8 15 Sur 29 Sur 0 -- -- 84
2021-02-19 09:00:00 8.1 17 Sur 28 Sur 0 -- -- 87
2021-02-19 08:00:00 7.8 13 Sur 19 Sur 0 -- -- 91
2021-02-19 07:00:00 8.1 10 Sur 21 Sur 0 -- -- 93
2021-02-19 06:00:00 8.2 14 Sur 26 Sur 0.2 -- -- 93
2021-02-19 05:00:00 8.6 5 Sur 13 Sudoeste 0.2 -- -- 96
2021-02-19 04:00:00 8.6 9 Sudoeste 18 Sudoeste 1.2 -- -- 96
2021-02-19 03:00:00 8.6 10 Sur 17 Sudoeste 0.4 -- -- 95
2021-02-19 02:00:00 8.6 12 Sur 22 Sur 0.4 -- -- 95
2021-02-19 01:00:00 8.8 14 Sur 22 Sur 0 -- -- 94
2021-02-19 00:00:00 8.4 12 Sur 21 Sur 0 -- -- 94
2021-02-18 23:00:00 9.2 15 Sur 25 Sudeste 0 -- -- 94
2021-02-18 22:00:00 9.1 17 Sur 22 Sur 0 -- -- 94
2021-02-18 21:00:00 9.5 13 Sur 18 Sur 0 -- -- 91
2021-02-18 20:00:00 9.2 9 Sur 19 Sudoeste 0 -- -- 90
2021-02-18 19:00:00 9.9 12 Sudoeste 26 Sudoeste 0 -- -- 87
2021-02-18 18:00:00 10.1 13 Sudoeste 24 Sudoeste 0.2 -- -- 88
2021-02-18 17:00:00 10 16 Sudoeste 48 Sudoeste 1 -- -- 86
2021-02-18 16:00:00 12.8 22 Sudoeste 41 Sudoeste 0 -- -- 74
2021-02-18 15:00:00 11.9 27 Sudoeste 51 Sudoeste 0 -- -- 71
2021-02-18 14:00:00 11.7 32 Sudoeste 49 Sudoeste 0 -- -- 72
2021-02-18 13:00:00 10.8 30 Sudoeste 52 Sudoeste 0 -- -- 76
2021-02-18 12:00:00 11 35 Sudoeste 55 Sudoeste 0 -- -- 76
2021-02-18 11:00:00 10.1 24 Sudoeste 44 Sudoeste 0 -- -- 82
2021-02-18 10:00:00 8.3 15 Sur 28 Sur 0 -- -- 88
2021-02-18 09:00:00 7 18 Sur 29 Sur 0 -- -- 91
2021-02-18 08:00:00 7.2 22 Sur 33 Sur 0 -- -- 91
2021-02-18 07:00:00 7.4 23 Sur 36 Sur 0 -- -- 91
2021-02-18 06:00:00 7.7 20 Sur 30 Sur 0 -- -- 90
2021-02-18 05:00:00 8 16 Sur 28 Sur 0 -- -- 90
2021-02-18 04:00:00 8 17 Sur 28 Sur 0 -- -- 93
2021-02-18 03:00:00 7.1 17 Sur 29 Sur 0 -- -- 92
2021-02-18 02:00:00 7.4 15 Sur 22 Sur 0 -- -- 93
2021-02-18 01:00:00 8 9 Sur 15 Sur 0 -- -- 89
2021-02-18 00:00:00 9 10 Sur 22 Sur 0 -- -- 86
2021-02-17 23:00:00 9.3 16 Sur 29 Sur 0 -- -- 85
2021-02-17 22:00:00 9.6 17 Sur 24 Sur 0 -- -- 86
2021-02-17 21:00:00 9.4 13 Sur 18 Sur 0 -- -- 89
2021-02-17 20:00:00 9.6 9 Sur 13 Sur 0 -- -- 91
2021-02-17 19:00:00 10.2 2 Sudoeste 11 Sur 0 -- -- 90
2021-02-17 18:00:00 11.2 9 Sur 31 Sudoeste 0 -- -- 89
2021-02-17 17:00:00 11.3 20 Sudoeste 30 Sudoeste 0.4 -- -- 85
2021-02-17 16:00:00 12.8 18 Sudoeste 31 Sudoeste 0 -- -- 75
2021-02-17 15:00:00 12.3 14 Sudoeste 27 Sudoeste 0 -- -- 77
2021-02-17 14:00:00 12.2 18 Sudoeste 33 Sudoeste 0 -- -- 78
2021-02-17 13:00:00 12.4 21 Sudoeste 35 Sudoeste 0 -- -- 83
2021-02-17 12:00:00 9.6 10 Sur 19 Sur 0 -- -- 96
2021-02-17 11:00:00 8.6 5 Sur 11 Sur 0 -- -- 97
2021-02-17 10:00:00 7.8 5 Sudeste 10 Sur 0 -- -- 97
2021-02-17 09:00:00 7.7 4 Sudeste 13 Sur 0 -- -- 97
2021-02-17 08:00:00 6.8 0 Calma 5 Sur 0 -- -- 96
2021-02-17 07:00:00 5.9 4 Este 10 Este 0 -- -- 95
2021-02-17 06:00:00 7.3 6 Sur 10 Sudoeste 0 -- -- 96
2021-02-17 05:00:00 6.9 8 Sur 13 Sur 0 -- -- 97
2021-02-17 04:00:00 6.8 7 Sur 12 Sur 0 -- -- 96
2021-02-17 03:00:00 6.7 3 Sudoeste 5 Sudoeste 0 -- -- 95
2021-02-17 02:00:00 8.3 3 Sur 8 Sur 0 -- -- 96
2021-02-17 01:00:00 8.5 3 Sudoeste 6 Sudoeste 0.2 -- -- 96
2021-02-17 00:00:00 8.7 3 Sudoeste 12 Sur 0 -- -- 96
2021-02-16 23:00:00 8.6 9 Sur 17 Sudoeste 0 -- -- 95
2021-02-16 22:00:00 8.3 8 Sudoeste 18 Sur 0 -- -- 95
2021-02-16 21:00:00 8.3 6 Sudoeste 17 Sur 0 -- -- 93
2021-02-16 20:00:00 9 9 Sudoeste 17 Sur 0 -- -- 93
2021-02-16 19:00:00 9.6 10 Sudoeste 18 Sudoeste 0 -- -- 91
2021-02-16 18:00:00 9.9 14 Sudoeste 28 Sudoeste 0.4 -- -- 89
2021-02-16 17:00:00 9.9 22 Sudoeste 36 Sudoeste 0.6 -- -- 88
2021-02-16 16:00:00 12.1 23 Sudoeste 35 Sudoeste 0 -- -- 77
2021-02-16 15:00:00 12.1 14 Sur 33 Sudoeste 0 -- -- 75
2021-02-16 14:00:00 11.6 22 Sudoeste 36 Sudoeste 0 -- -- 75
2021-02-16 13:00:00 11.4 22 Sudoeste 45 Sudoeste 0 -- -- 75
2021-02-16 12:00:00 11.4 26 Sur 42 Sudoeste 0 -- -- 73
2021-02-16 11:00:00 9.8 21 Sur 33 Sudoeste 0 -- -- 83
2021-02-16 10:00:00 6.7 13 Sudeste 18 Este 0 -- -- 97
2021-02-16 09:00:00 1.6 7 Nordeste 11 Norte 0 -- -- 97
2021-02-16 08:00:00 0.9 3 Sudoeste 5 Sudeste 0 -- -- 95
2021-02-16 07:00:00 1.3 6 Sudeste 8 Sudeste 0 -- -- 95
2021-02-16 06:00:00 1.5 4 Sudoeste 5 Noroeste 0 -- -- 95
2021-02-16 05:00:00 1.9 3 Sur 7 Nordeste 0 -- -- 94
2021-02-16 04:00:00 2.3 4 Este 10 Este 0 -- -- 93
2021-02-16 03:00:00 2.9 9 Este 12 Este 0 -- -- 93
2021-02-16 02:00:00 3.5 8 Nordeste 10 Este 0 -- -- 92
2021-02-16 01:00:00 4.5 0 Calma 11 Sudeste 0 -- -- 88
2021-02-16 00:00:00 5.9 6 Sudoeste 9 Sur 0 -- -- 93
2021-02-15 23:00:00 6.1 3 Sur 12 Este 0 -- -- 89
2021-02-15 22:00:00 7 6 Nordeste 9 Nordeste 0 -- -- 89
2021-02-15 21:00:00 7.8 3 Nordeste 8 Este 0 -- -- 87
2021-02-15 20:00:00 9.8 0 Calma 6 Oeste 0 -- -- 80
2021-02-15 19:00:00 13.5 0 Calma 9 Sur 0 -- -- 68
2021-02-15 18:00:00 15.9 6 Sur 13 Sudeste 0 -- -- 61
2021-02-15 17:00:00 16.4 8 Sudeste 15 Sudeste 0 -- -- 55
2021-02-15 16:00:00 16.3 4 Sur 12 Este 0 -- -- 56
2021-02-15 15:00:00 15.3 6 Nordeste 14 Este 0 -- -- 66
2021-02-15 14:00:00 14 6 Este 12 Nordeste 0 -- -- 68
2021-02-15 13:00:00 12.5 7 Norte 14 Nordeste 0 -- -- 73
2021-02-15 12:00:00 10.6 7 Nordeste 11 Norte 0 -- -- 76
2021-02-15 11:00:00 8.3 0 Calma 8 Este 0 -- -- 84
2021-02-15 10:00:00 5.8 8 Este 9 Este 0 -- -- 96
2021-02-15 09:00:00 2.1 5 Sudeste 7 Sudeste 0 -- -- 97
2021-02-15 08:00:00 1.4 3 Norte 8 Nordeste 0 -- -- 95
2021-02-15 07:00:00 1.8 7 Nordeste 12 Nordeste 0 -- -- 95
2021-02-15 06:00:00 2 3 Norte 7 Este 0 -- -- 94
2021-02-15 05:00:00 2.3 5 Este 9 Este 0 -- -- 94
2021-02-15 04:00:00 2.7 6 Nordeste 8 Nordeste 0 -- -- 94
2021-02-15 03:00:00 3.2 5 Nordeste 13 Este 0 -- -- 94
2021-02-15 02:00:00 3.1 5 Este 6 Nordeste 0 -- -- 92
2021-02-15 01:00:00 3.8 4 Este 8 Nordeste 0 -- -- 90
2021-02-15 00:00:00 5 5 Sudeste 6 Sudeste 0 -- -- 88
2021-02-14 23:00:00 7.3 5 Sudoeste 11 Sur 0 -- -- 84
2021-02-14 22:00:00 8.1 7 Sur 14 Sudeste 0 -- -- 90
2021-02-14 21:00:00 8.5 3 Sur 7 Sudeste 0 -- -- 86
2021-02-14 20:00:00 9.9 2 Este 9 Este 0 -- -- 85
2021-02-14 19:00:00 11.8 7 Este 11 Nordeste 0 -- -- 80
2021-02-14 18:00:00 14.1 9 Sudeste 13 Sur 0 -- -- 74
2021-02-14 17:00:00 14.9 9 Sudeste 17 Sudeste 0 -- -- 65
2021-02-14 16:00:00 14.7 10 Sudeste 18 Sudeste 0 -- -- 66
2021-02-14 15:00:00 13.4 6 Este 12 Nordeste 0 -- -- 76
2021-02-14 14:00:00 11.4 4 Sudeste 10 Norte 0 -- -- 81
2021-02-14 13:00:00 8.2 4 Oeste 8 Noroeste 0 -- -- 94
2021-02-14 12:00:00 6.3 2 Este 6 Sudeste 0 -- -- 97
2021-02-14 11:00:00 4.7 2 Noroeste 7 Noroeste 0 -- -- 97
2021-02-14 10:00:00 3.8 4 Norte 10 Noroeste 0 -- -- 97
2021-02-14 09:00:00 3.3 2 Este 6 Sudeste 0 -- -- 97
2021-02-14 08:00:00 3.2 0 Calma 4 Este 0 -- -- 97
2021-02-14 07:00:00 2.5 3 Este 6 Nordeste 0 -- -- 96
2021-02-14 06:00:00 2.2 2 Norte 5 Noroeste 0 -- -- 96
2021-02-14 05:00:00 2.4 3 Oeste 5 Oeste 0 -- -- 95
2021-02-14 04:00:00 2.5 2 Norte 8 Oeste 0 -- -- 95
2021-02-14 03:00:00 2.8 5 Noroeste 9 Sur 0 -- -- 93
2021-02-14 02:00:00 4.5 6 Sur 9 Sur 0 -- -- 94
2021-02-14 01:00:00 5.3 5 Sur 10 Sur 0 -- -- 94
2021-02-14 00:00:00 6 5 Sudoeste 10 Sudoeste 0 -- -- 92
2021-02-13 23:00:00 6.9 3 Sur 12 Sur 0 -- -- 88
2021-02-13 22:00:00 8.3 7 Sur 12 Sur 0 -- -- 89
2021-02-13 21:00:00 9 4 Sudoeste 9 Sur 0 -- -- 88
2021-02-13 20:00:00 10 4 Sur 9 Sur 0 -- -- 83
2021-02-13 19:00:00 11.9 6 Sudoeste 12 Sur 0 -- -- 78
2021-02-13 18:00:00 14.3 9 Sur 17 Oeste 0 -- -- 67
2021-02-13 17:00:00 14.5 12 Sudoeste 24 Sudoeste 0 -- -- 67
2021-02-13 16:00:00 14.5 13 Sudoeste 23 Sudoeste 0 -- -- 64
2021-02-13 15:00:00 14 12 Sur 18 Sudoeste 0 -- -- 66
2021-02-13 14:00:00 13.2 10 Sudoeste 17 Sur 0 -- -- 68
2021-02-13 13:00:00 11.6 5 Sudoeste 13 Sur 0 -- -- 73
2021-02-13 08:00:00 -- -- -- -- -- -- -- -- --
2021-02-13 07:00:00 4.7 8 Sur 18 Sur 0 -- -- 95
2021-02-13 06:00:00 4.2 10 Sur 14 Sur 0 -- -- 94
2021-02-13 05:00:00 4 7 Sudoeste 12 Sur 0 -- -- 93
2021-02-13 04:00:00 4.4 6 Sur 18 Sur 0 -- -- 92
2021-02-13 03:00:00 4.6 7 Sudeste 12 Sur 0 -- -- 90
2021-02-13 02:00:00 4.5 5 Sur 12 Sur 0 -- -- 90
2021-02-13 01:00:00 4.6 6 Sudeste 10 Sudeste 0 -- -- 87
2021-02-13 00:00:00 6.1 3 Sudoeste 9 Sudoeste 0 -- -- 86
2021-02-12 23:00:00 6.1 5 Sudoeste 8 Sudoeste 0 -- -- 89
2021-02-12 22:00:00 6.4 0 Calma 10 Oeste 0 -- -- 84
2021-02-12 21:00:00 7.7 11 Oeste 21 Oeste 0 -- -- 80
2021-02-12 20:00:00 8.7 17 Oeste 23 Oeste 0 -- -- 79
2021-02-12 19:00:00 10.7 12 Oeste 23 Sudoeste 0 -- -- 72
2021-02-12 18:00:00 13.2 8 Oeste 22 Oeste 0 -- -- 64
2021-02-12 17:00:00 14.8 13 Oeste 35 Noroeste 0 -- -- 54
2021-02-12 16:00:00 14.1 12 Noroeste 28 Oeste 0 -- -- 58
2021-02-12 15:00:00 14.4 20 Oeste 32 Oeste 0 -- -- 61
2021-02-12 14:00:00 13 22 Oeste 36 Sudoeste 0 -- -- 69
2021-02-12 13:00:00 12.3 23 Sudoeste 36 Sudoeste 0.2 -- -- 70
2021-02-12 12:00:00 11.1 26 Oeste 41 Sudoeste 0 -- -- 76
2021-02-12 11:00:00 10 27 Oeste 39 Oeste 0 -- -- 79
2021-02-12 10:00:00 8.8 23 Sudoeste 32 Sudoeste 0 -- -- 85
2021-02-12 09:00:00 7.1 18 Sudoeste 28 Sudoeste 0 -- -- 90
2021-02-12 08:00:00 7.1 14 Sudoeste 30 Sudoeste 0 -- -- 90
2021-02-12 07:00:00 8.5 24 Sudoeste 32 Sudoeste 0 -- -- 85
2021-02-12 06:00:00 8.8 13 Sudoeste 22 Sudoeste 0 -- -- 90
2021-02-12 05:00:00 9.5 12 Sudoeste 26 Sudoeste 0 -- -- 90
2021-02-12 04:00:00 9.9 19 Sudoeste 30 Sudoeste 0 -- -- 90
2021-02-12 03:00:00 10.2 19 Sudoeste 35 Sur 1.6 -- -- 93
2021-02-12 02:00:00 10.2 16 Sur 35 Sur 0.8 -- -- 93
2021-02-12 01:00:00 10.4 26 Sur 37 Sur 0.2 -- -- 92
2021-02-12 00:00:00 10.2 13 Sur 21 Sur 0 -- -- 91
2021-02-11 23:00:00 10.4 14 Sur 21 Sur 0 -- -- 90
2021-02-11 22:00:00 11 13 Sur 25 Sur 0 -- -- 87
2021-02-11 21:00:00 11.7 18 Sur 31 Sur 0 -- -- 85
2021-02-11 20:00:00 12.1 19 Sur 28 Sur 0 -- -- 85
2021-02-11 19:00:00 12.8 19 Sur 30 Sur 0 -- -- 79
2021-02-11 18:00:00 13.5 19 Sur 34 Sur 0 -- -- 79
2021-02-11 17:00:00 14.3 17 Sur 35 Sudoeste 0 -- -- 76
2021-02-11 16:00:00 14.6 17 Sur 37 Sudoeste 0 -- -- 74
2021-02-11 15:00:00 13.3 19 Sudoeste 33 Sudoeste 0 -- -- 82
2021-02-11 14:00:00 12.4 12 Sudoeste 18 Oeste 0.4 -- -- 90
2021-02-11 13:00:00 12.5 11 Sudoeste 22 Sudoeste 0 -- -- 85
2021-02-11 12:00:00 11.6 17 Sudoeste 27 Sudoeste 0 -- -- 87
2021-02-11 11:00:00 10.3 5 Sur 12 Sudoeste 0 -- -- 93
2021-02-11 10:00:00 9.3 2 Noroeste 10 Sudoeste 0 -- -- 96
2021-02-11 09:00:00 8.4 4 Sur 9 Sur 0 -- -- 96
2021-02-11 08:00:00 7.8 2 Sudeste 4 Sudoeste 0 -- -- 95
2021-02-11 07:00:00 7.6 0 Calma 9 Sur 0 -- -- 95
2021-02-11 06:00:00 7.4 5 Sudeste 8 Sur 0 -- -- 95
2021-02-11 05:00:00 7 4 Sur 8 Sudoeste 0 -- -- 94
2021-02-11 04:00:00 6.7 4 Sur 10 Sur 0 -- -- 93
2021-02-11 03:00:00 6.7 8 Sur 17 Sudoeste 0 -- -- 91
2021-02-11 02:00:00 7 10 Sudoeste 15 Sur 0 -- -- 88
2021-02-11 01:00:00 7.4 7 Sur 14 Sur 0 -- -- 87
2021-02-11 00:00:00 7.4 8 Sur 21 Sudoeste 0 -- -- 85
2021-02-10 23:00:00 7.4 11 Sudoeste 17 Sudoeste 0 -- -- 85
2021-02-10 22:00:00 7.1 7 Sur 12 Sur 0.2 -- -- 85
2021-02-10 21:00:00 7.3 9 Sudoeste 15 Sudoeste 0 -- -- 81
2021-02-10 20:00:00 7.8 14 Sudoeste 23 Sudoeste 0 -- -- 77
2021-02-10 19:00:00 8.6 17 Sudoeste 28 Sudoeste 0 -- -- 73
2021-02-10 18:00:00 9.5 17 Sudoeste 30 Sudoeste 0 -- -- 66
2021-02-10 17:00:00 10.5 21 Sudoeste 30 Sudoeste 0 -- -- 61
2021-02-10 16:00:00 11.6 20 Sudoeste 29 Sudoeste 0 -- -- 55
2021-02-10 15:00:00 10.9 19 Sudoeste 32 Sudoeste 0 -- -- 63
2021-02-10 14:00:00 10.4 20 Sudoeste 28 Sudoeste 0 -- -- 60
2021-02-10 13:00:00 9.2 16 Sudoeste 31 Sudoeste 0 -- -- 67
2021-02-10 12:00:00 7.6 19 Sudoeste 30 Sudoeste 0 -- -- 76
2021-02-10 11:00:00 6 17 Sudoeste 25 Sudoeste 0 -- -- 83
2021-02-10 10:00:00 5.4 12 Sudoeste 27 Oeste 0 -- -- 85
2021-02-10 09:00:00 3.1 7 Sur 19 Sudoeste 0 -- -- 91
2021-02-10 08:00:00 3.7 19 Oeste 35 Oeste 0 -- -- 90
2021-02-10 07:00:00 4 22 Oeste 40 Oeste 0 -- -- 89
2021-02-10 06:00:00 4.2 25 Sudoeste 36 Sudoeste 0 -- -- 89
2021-02-10 05:00:00 4.1 19 Sudoeste 40 Sudoeste 0 -- -- 89
2021-02-10 04:00:00 4.8 26 Sudoeste 38 Sudoeste 0 -- -- 87
2021-02-10 03:00:00 4.9 27 Sudoeste 63 Sudoeste 0.6 -- -- 88
2021-02-10 02:00:00 4.9 21 Sudoeste 33 Sudoeste 0.4 -- -- 91
2021-02-10 01:00:00 4.8 14 Sur 47 Sudoeste 0 -- -- 93
2021-02-10 00:00:00 4.9 23 Sudoeste 39 Sudoeste 0.2 -- -- 90
2021-02-09 23:00:00 5.2 26 Sudoeste 37 Sudoeste 0 -- -- 90
2021-02-09 22:00:00 5.1 32 Sudoeste 45 Sudoeste 0 -- -- 89
2021-02-09 21:00:00 4.4 25 Sudoeste 34 Sudoeste 0 -- -- 90
2021-02-09 20:00:00 4.4 18 Sur 37 Sudoeste 0.6 -- -- 92
2021-02-09 19:00:00 4.2 8 Sudoeste 28 Sudoeste 0.2 -- -- 91
2021-02-09 18:00:00 4.2 19 Sudoeste 40 Sudoeste 0 -- -- 89
2021-02-09 17:00:00 4.2 28 Sudoeste 55 Sudoeste 0.4 -- -- 90
2021-02-09 16:00:00 6.3 31 Sudoeste 49 Sudoeste 0 -- -- 82
2021-02-09 15:00:00 6.5 30 Sudoeste 52 Sudoeste 0 -- -- 84
2021-02-09 14:00:00 4.7 18 Sur 31 Sur 0 -- -- 90
2021-02-09 13:00:00 4.2 28 Oeste 60 Oeste 1.2 -- -- 89
2021-02-09 12:00:00 5.4 32 Oeste 57 Sudoeste 3.2 -- -- 88
2021-02-09 11:00:00 6.8 45 Sudoeste 60 Sudoeste 3.4 -- -- 88
2021-02-09 10:00:00 7.3 27 Sur 54 Sur 1.8 -- -- 91
2021-02-09 09:00:00 7.2 24 Sur 43 Sudoeste 1.2 -- -- 92
2021-02-09 08:00:00 7.1 23 Sur 54 Sudoeste 0.2 -- -- 91
2021-02-09 07:00:00 7 30 Sur 45 Sur 0 -- -- 91
2021-02-09 06:00:00 6.5 25 Sur 38 Sur 0 -- -- 92
2021-02-09 05:00:00 5.8 18 Sur 30 Sur 0 -- -- 93
2021-02-09 04:00:00 5.4 24 Sur 35 Sur 0.4 -- -- 92
2021-02-09 03:00:00 5.4 19 Sur 31 Sudoeste 0.4 -- -- 93
2021-02-09 02:00:00 5.8 21 Sudoeste 33 Sudoeste 0 -- -- 90
2021-02-09 01:00:00 6.2 21 Sudoeste 36 Sudoeste 0 -- -- 88
2021-02-09 00:00:00 6.2 19 Sudoeste 41 Sudoeste 0 -- -- 89
2021-02-08 23:00:00 6.5 16 Sudoeste 28 Sudoeste 0 -- -- 92
2021-02-08 22:00:00 6.6 19 Sudoeste 31 Sudoeste 0 -- -- 89
2021-02-08 21:00:00 6 24 Sudoeste 36 Sudoeste 0 -- -- 90
2021-02-08 20:00:00 6.4 23 Sudoeste 37 Sudoeste 0 -- -- 85
2021-02-08 19:00:00 6.8 21 Sudoeste 41 Sudoeste 0 -- -- 83
2021-02-08 18:00:00 7.7 26 Sudoeste 44 Sudoeste 0 -- -- 78
2021-02-08 17:00:00 8.1 30 Sudoeste 49 Sudoeste 0 -- -- 76
2021-02-08 16:00:00 8 27 Sudoeste 53 Sudoeste 0 -- -- 79
2021-02-08 15:00:00 7.8 34 Sudoeste 50 Sudoeste 0 -- -- 81
2021-02-08 14:00:00 7.3 27 Sudoeste 43 Sudoeste 0.2 -- -- 85
2021-02-08 13:00:00 8 30 Sudoeste 45 Sudoeste 0 -- -- 85
2021-02-08 12:00:00 7.4 25 Sudoeste 41 Sudoeste 0 -- -- 83
2021-02-08 11:00:00 6.7 24 Sudoeste 42 Sudoeste 0 -- -- 85
2021-02-08 10:00:00 5.8 24 Sudoeste 34 Sudoeste 0 -- -- 90
2021-02-08 09:00:00 4.9 13 Sudoeste 33 Sudoeste 0 -- -- 92
2021-02-08 08:00:00 4.6 15 Sudoeste 35 Sudoeste 0 -- -- 92
2021-02-08 07:00:00 4.9 22 Sudoeste 34 Sudoeste 0 -- -- 90
2021-02-08 06:00:00 5.7 21 Sudoeste 30 Sudoeste 0 -- -- 89
2021-02-08 05:00:00 5.7 17 Sudoeste 28 Sudoeste 0 -- -- 93
2021-02-08 04:00:00 5.9 14 Sudoeste 29 Sudoeste 0 -- -- 91
2021-02-08 03:00:00 6.9 19 Sudoeste 42 Sudoeste 0.2 -- -- 90
2021-02-08 02:00:00 6.6 18 Sur 32 Sudoeste 0 -- -- 94
2021-02-08 01:00:00 6.5 15 Sur 24 Sur 0.6 -- -- 95
2021-02-08 00:00:00 6 13 Sur 23 Sudoeste 0.4 -- -- 95
2021-02-07 23:00:00 5.5 16 Sur 26 Sur 0 -- -- 94
2021-02-07 22:00:00 5.4 15 Sur 23 Sur 0 -- -- 94
2021-02-07 21:00:00 5.1 16 Sudoeste 27 Sudoeste 0 -- -- 92
2021-02-07 20:00:00 4.7 17 Sudoeste 31 Sudoeste 0 -- -- 92
2021-02-07 19:00:00 4.5 17 Sudoeste 32 Sudoeste 0 -- -- 90
2021-02-07 18:00:00 4.5 23 Sudoeste 41 Sudoeste 0 -- -- 88
2021-02-07 17:00:00 4.6 23 Sudoeste 42 Sudoeste 0 -- -- 88
2021-02-07 16:00:00 4.6 25 Sudoeste 37 Sudoeste 0.2 -- -- 84
2021-02-07 15:00:00 5.5 26 Sudoeste 35 Sudoeste 0 -- -- 78
2021-02-07 14:00:00 5.9 21 Sudoeste 40 Sudoeste 0 -- -- 75
2021-02-07 13:00:00 6.2 15 Sudoeste 26 Sudoeste 0 -- -- 77
2021-02-07 12:00:00 5.1 10 Sur 17 Sur 0 -- -- 73
2021-02-07 11:00:00 4.1 5 Sur 11 Sudoeste 0 -- -- 80
2021-02-07 10:00:00 2.7 4 Oeste 8 Sudoeste 0 -- -- 86
2021-02-07 09:00:00 1.2 4 Noroeste 7 Noroeste 0 -- -- 91
2021-02-07 08:00:00 1.5 0 Calma 10 Noroeste 0 -- -- 90
2021-02-07 07:00:00 1.7 9 Noroeste 11 Noroeste 0 -- -- 90
2021-02-07 06:00:00 2.1 9 Noroeste 12 Noroeste 0 -- -- 88
2021-02-07 05:00:00 2.5 4 Norte 9 Norte 0 -- -- 87
2021-02-07 04:00:00 2.9 4 Norte 18 Noroeste 0 -- -- 85
2021-02-07 03:00:00 3.3 14 Norte 19 Norte 0 -- -- 84
2021-02-07 02:00:00 3.6 8 Noroeste 19 Noroeste 0 -- -- 84
2021-02-07 01:00:00 3.9 13 Noroeste 18 Noroeste 0 -- -- 83
2021-02-07 00:00:00 4.4 7 Norte 22 Norte 0 -- -- 81
2021-02-06 23:00:00 4.8 17 Norte 23 Norte 0 -- -- 80
2021-02-06 22:00:00 5.4 15 Noroeste 19 Noroeste 0 -- -- 83
2021-02-06 21:00:00 6.2 5 Norte 8 Noroeste 0 -- -- 92
2021-02-06 20:00:00 6.4 6 Este 9 Sudeste 0 -- -- 90
2021-02-06 19:00:00 6.9 8 Norte 11 Noroeste 0 -- -- 86
2021-02-06 18:00:00 7.4 9 Norte 19 Norte 0 -- -- 81
2021-02-06 17:00:00 8.1 9 Norte 17 Nordeste 0 -- -- 81
2021-02-06 16:00:00 8.4 12 Norte 18 Norte 0 -- -- 80
2021-02-06 15:00:00 7.3 17 Norte 36 Norte 0 -- -- 87
2021-02-06 14:00:00 7.5 23 Norte 35 Norte 0 -- -- 84
2021-02-06 13:00:00 6.9 17 Norte 28 Norte 0 -- -- 87
2021-02-06 12:00:00 6.5 18 Norte 36 Norte 0 -- -- 90
2021-02-06 11:00:00 6.2 19 Norte 28 Norte 0.4 -- -- 95
2021-02-06 10:00:00 6.3 13 Norte 20 Norte 0.2 -- -- 96
2021-02-06 09:00:00 6.3 14 Norte 33 Nordeste 0.6 -- -- 96
2021-02-06 08:00:00 6.7 21 Nordeste 46 Nordeste 1.6 -- -- 96
2021-02-06 07:00:00 7.7 6 Nordeste 10 Nordeste 0.6 -- -- 96
2021-02-06 06:00:00 7.2 8 Norte 15 Noroeste 2.2 -- -- 96
2021-02-06 05:00:00 7.6 6 Noroeste 14 Noroeste 1.2 -- -- 96
2021-02-06 04:00:00 7.8 5 Este 13 Nordeste 3.2 -- -- 96
2021-02-06 03:00:00 8 9 Nordeste 15 Nordeste 1.8 -- -- 95
2021-02-06 02:00:00 8.1 12 Nordeste 27 Nordeste 0.4 -- -- 94
2021-02-06 01:00:00 8.1 20 Nordeste 39 Este 0 -- -- 94
2021-02-06 00:00:00 8.2 25 Nordeste 36 Este 0 -- -- 92
2021-02-05 23:00:00 8.3 17 Nordeste 25 Nordeste 0 -- -- 92
2021-02-05 22:00:00 8.5 16 Nordeste 26 Nordeste 0.6 -- -- 93
2021-02-05 21:00:00 8.8 5 Sudeste 25 Nordeste 2.2 -- -- 92
2021-02-05 20:00:00 9.4 17 Nordeste 29 Nordeste 0 -- -- 89
2021-02-05 19:00:00 9.4 13 Norte 18 Noroeste 0 -- -- 91
2021-02-05 18:00:00 10 10 Noroeste 13 Norte 0 -- -- 88
2021-02-05 17:00:00 10.3 10 Nordeste 19 Nordeste 0 -- -- 86
2021-02-05 16:00:00 10.4 15 Nordeste 22 Nordeste 0 -- -- 85
2021-02-05 15:00:00 9.8 12 Norte 17 Noroeste 0 -- -- 90
2021-02-05 14:00:00 10 8 Norte 12 Noroeste 0 -- -- 88
2021-02-05 13:00:00 9.5 7 Este 15 Nordeste 0 -- -- 95
2021-02-05 12:00:00 7.8 10 Nordeste 18 Nordeste 0.2 -- -- 97
2021-02-05 11:00:00 6.6 12 Nordeste 19 Nordeste 1.6 -- -- 97
2021-02-05 10:00:00 6.1 10 Norte 19 Norte 2.2 -- -- 96
2021-02-05 09:00:00 6 13 Norte 22 Norte 0.2 -- -- 96
2021-02-05 08:00:00 6 13 Noroeste 22 Noroeste 0 -- -- 96
2021-02-05 07:00:00 5.9 17 Norte 22 Norte 0.8 -- -- 96
2021-02-05 06:00:00 5.7 13 Norte 19 Norte 0 -- -- 96
2021-02-05 05:00:00 5.7 9 Norte 14 Norte 0.6 -- -- 96
2021-02-05 04:00:00 5.7 9 Nordeste 14 Nordeste 0.2 -- -- 96
2021-02-05 03:00:00 5.7 10 Norte 15 Norte 0.6 -- -- 96
2021-02-05 02:00:00 5.7 9 Norte 15 Norte 0.4 -- -- 96
2021-02-05 01:00:00 5.6 10 Norte 16 Norte 0 -- -- 96
2021-02-05 00:00:00 5.6 6 Norte 9 Norte 0 -- -- 96
2021-02-04 23:00:00 5.8 6 Norte 8 Norte 0.6 -- -- 95
2021-02-04 22:00:00 5.9 0 Calma 8 Noroeste 0.2 -- -- 95
2021-02-04 21:00:00 5.9 6 Noroeste 8 Noroeste 0 -- -- 95
2021-02-04 20:00:00 5.9 0 Calma 9 Nordeste 0.2 -- -- 95
2021-02-04 19:00:00 6 4 Este 8 Sudeste 0.4 -- -- 94
2021-02-04 18:00:00 6 4 Sudeste 11 Este 0.8 -- -- 94
2021-02-04 17:00:00 6.1 9 Este 12 Nordeste 0.8 -- -- 93
2021-02-04 16:00:00 6.4 9 Este 12 Nordeste 1 -- -- 93
2021-02-04 15:00:00 6.4 9 Este 13 Nordeste 1.4 -- -- 92
2021-02-04 14:00:00 6.5 8 Este 18 Este 2.6 -- -- 92
2021-02-04 13:00:00 7 8 Este 10 Este 1 -- -- 90
2021-02-04 12:00:00 7.4 3 Norte 18 Sudeste 1.2 -- -- 92
2021-02-04 11:00:00 7.3 5 Sudeste 11 Noroeste 0 -- -- 95
2021-02-04 10:00:00 6.9 4 Este 12 Este 0 -- -- 95
2021-02-04 09:00:00 6.1 3 Este 9 Sudeste 0 -- -- 94
2021-02-04 08:00:00 6.2 3 Sur 9 Sur 0 -- -- 95
2021-02-04 07:00:00 5.8 5 Sur 9 Sur 0 -- -- 95
2021-02-04 06:00:00 5.2 3 Nordeste 8 Oeste 0 -- -- 94
2021-02-04 05:00:00 5.6 3 Sudoeste 9 Sudeste 0 -- -- 93
2021-02-04 04:00:00 5.8 4 Sudeste 8 Sudeste 0 -- -- 90
2021-02-04 03:00:00 7.3 0 Calma 14 Sur 0 -- -- 91
2021-02-04 02:00:00 7.3 7 Sur 17 Sur 0 -- -- 93
2021-02-04 01:00:00 7.8 12 Sur 21 Sur 0 -- -- 91
2021-02-04 00:00:00 7.5 12 Sur 19 Sur 0 -- -- 92
2021-02-03 23:00:00 6.8 9 Sur 19 Sur 0 -- -- 92
2021-02-03 22:00:00 7 12 Sur 19 Sur 0 -- -- 91
2021-02-03 21:00:00 7.6 12 Sur 19 Sur 0 -- -- 90
2021-02-03 20:00:00 9.1 13 Sur 23 Sur 0 -- -- 86
2021-02-03 19:00:00 10.1 15 Sur 24 Sur 0 -- -- 82
2021-02-03 18:00:00 11 14 Sur 33 Sudoeste 0 -- -- 75
2021-02-03 17:00:00 12.4 18 Sudoeste 37 Sudoeste 0 -- -- 64
2021-02-03 16:00:00 12.2 27 Sudoeste 41 Sudoeste 0 -- -- 63
2021-02-03 15:00:00 12.2 20 Sudoeste 36 Sudoeste 0 -- -- 67
2021-02-03 14:00:00 12 25 Sudoeste 45 Sudoeste 0 -- -- 68
2021-02-03 13:00:00 11 27 Sudoeste 46 Sudoeste 0 -- -- 73
2021-02-03 12:00:00 11.1 26 Sudoeste 38 Sudoeste 0 -- -- 73
2021-02-03 11:00:00 10.4 23 Sudoeste 36 Sudoeste 0 -- -- 80
2021-02-03 10:00:00 9.4 19 Sudoeste 27 Sudoeste 0 -- -- 86
2021-02-03 09:00:00 8.7 18 Sudoeste 35 Sudoeste 0 -- -- 88
2021-02-03 08:00:00 9 23 Sudoeste 39 Sudoeste 0.2 -- -- 89
2021-02-03 07:00:00 9.1 23 Sudoeste 43 Sudoeste 0 -- -- 93
2021-02-03 06:00:00 9 27 Sudoeste 45 Sudoeste 0 -- -- 91
2021-02-03 05:00:00 9.2 30 Sudoeste 58 Sudoeste 0 -- -- 90
2021-02-03 04:00:00 9.5 31 Sur 51 Sudoeste 0 -- -- 89
2021-02-03 03:00:00 9.7 26 Sur 46 Sur 0 -- -- 88
2021-02-03 02:00:00 10 24 Sur 45 Sur 0 -- -- 85
2021-02-03 01:00:00 10.2 32 Sur 47 Sur 0 -- -- 82
2021-02-03 00:00:00 10.2 29 Sur 45 Sur 0 -- -- 81
2021-02-02 23:00:00 10.3 30 Sur 48 Sur 0 -- -- 80
2021-02-02 22:00:00 10.3 26 Sur 45 Sur 0 -- -- 82
2021-02-02 21:00:00 10.2 26 Sur 41 Sur 0 -- -- 84
2021-02-02 20:00:00 10.4 16 Sur 26 Sur 0 -- -- 83
2021-02-02 19:00:00 10.5 18 Sur 35 Sur 0 -- -- 83
2021-02-02 18:00:00 11.2 20 Sur 33 Sur 0 -- -- 79
2021-02-02 17:00:00 11.3 17 Sur 40 Sudoeste 0 -- -- 77
2021-02-02 16:00:00 11.4 24 Sur 39 Sudoeste 0 -- -- 78
2021-02-02 15:00:00 11.3 19 Sur 39 Sudoeste 0 -- -- 79
2021-02-02 14:00:00 11.7 32 Sudoeste 44 Sudoeste 0 -- -- 77
2021-02-02 13:00:00 11.6 28 Sudoeste 59 Sudoeste 0 -- -- 74
2021-02-02 12:00:00 11.3 24 Sudoeste 40 Sur 0 -- -- 80
2021-02-02 11:00:00 10.4 17 Sur 29 Sur 0 -- -- 85
2021-02-02 10:00:00 9.4 13 Sudoeste 22 Sudoeste 0 -- -- 90
2021-02-02 09:00:00 8.7 8 Sudoeste 23 Sudoeste 0 -- -- 92
2021-02-02 08:00:00 8.8 15 Sudoeste 31 Sudoeste 0 -- -- 90
2021-02-02 07:00:00 9.4 8 Sudoeste 25 Sudoeste 0 -- -- 93
2021-02-02 06:00:00 9.7 16 Sudoeste 28 Sudoeste 0 -- -- 91
2021-02-02 05:00:00 10.1 19 Sudoeste 26 Sur 0 -- -- 90
2021-02-02 04:00:00 10.2 14 Sudoeste 28 Sudoeste 0 -- -- 91
2021-02-02 03:00:00 10.4 19 Sudoeste 27 Sudoeste 0 -- -- 90
2021-02-02 02:00:00 10.4 20 Sudoeste 38 Sudoeste 0 -- -- 90
2021-02-02 01:00:00 10 13 Sudoeste 30 Sur 0 -- -- 91
2021-02-02 00:00:00 9.8 18 Sudoeste 38 Sudoeste 0 -- -- 92
2021-02-01 23:00:00 9.7 22 Sudoeste 37 Sudoeste 0 -- -- 91
2021-02-01 22:00:00 10.5 13 Sur 29 Sudoeste 0 -- -- 85
2021-02-01 21:00:00 10.8 10 Sudoeste 32 Sudoeste 0 -- -- 80
2021-02-01 20:00:00 10.7 24 Sudoeste 39 Sudoeste 0 -- -- 78
2021-02-01 19:00:00 11.1 25 Sudoeste 37 Sudoeste 0 -- -- 76
2021-02-01 18:00:00 11.8 24 Sudoeste 50 Oeste 0 -- -- 72
2021-02-01 17:00:00 13 32 Sudoeste 54 Sudoeste 0 -- -- 67
2021-02-01 16:00:00 14.3 35 Sudoeste 53 Sudoeste 0 -- -- 62
2021-02-01 15:00:00 14.4 31 Sudoeste 51 Sudoeste 0 -- -- 64
2021-02-01 14:00:00 13.9 32 Sudoeste 54 Oeste 0 -- -- 65
2021-02-01 13:00:00 12.6 37 Sudoeste 55 Sudoeste 0 -- -- 71
2021-02-01 12:00:00 12.1 32 Sudoeste 49 Sudoeste 0 -- -- 73
2021-02-01 11:00:00 11 30 Sudoeste 42 Sudoeste 0 -- -- 74
2021-02-01 10:00:00 9.3 29 Sudoeste 41 Sudoeste 0 -- -- 79
2021-02-01 09:00:00 8.1 26 Sudoeste 42 Sudoeste 0 -- -- 82
2021-02-01 08:00:00 7.5 27 Sudoeste 43 Sur 0 -- -- 85
2021-02-01 07:00:00 7.5 23 Sudoeste 38 Sudoeste 0 -- -- 84
2021-02-01 06:00:00 8.1 22 Sudoeste 45 Sudoeste 0 -- -- 81
2021-02-01 05:00:00 8.4 27 Sudoeste 44 Sudoeste 0 -- -- 79
2021-02-01 04:00:00 8.8 27 Oeste 49 Oeste 0 -- -- 76
2021-02-01 03:00:00 8.9 31 Sudoeste 56 Oeste 0 -- -- 76
2021-02-01 02:00:00 9.3 34 Oeste 60 Oeste 0 -- -- 73
2021-02-01 01:00:00 9.7 33 Sudoeste 59 Oeste 0 -- -- 75
2021-02-01 00:00:00 10.1 31 Oeste 49 Oeste 0 -- -- 79
2021-01-31 23:00:00 10.7 36 Oeste 59 Oeste 0 -- -- 79
2021-01-31 22:00:00 11 38 Oeste 61 Sudoeste 0 -- -- 78
2021-01-31 21:00:00 11.2 39 Oeste 63 Oeste 0 -- -- 75
2021-01-31 20:00:00 11.6 35 Oeste 51 Oeste 0 -- -- 72
2021-01-31 19:00:00 12.3 25 Oeste 59 Oeste 0 -- -- 65
2021-01-31 18:00:00 14.4 35 Oeste 53 Oeste 0 -- -- 60
2021-01-31 17:00:00 15.1 30 Oeste 53 Oeste 0 -- -- 63
2021-01-31 16:00:00 16.2 37 Oeste 66 Oeste 0 -- -- 62
2021-01-31 15:00:00 15.8 38 Sudoeste 66 Sudoeste 0 -- -- 69
2021-01-31 14:00:00 14.3 44 Sudoeste 63 Sudoeste 0 -- -- 74
2021-01-31 13:00:00 13.3 30 Sudoeste 51 Sudoeste 0 -- -- 78
2021-01-31 12:00:00 11.4 31 Sudoeste 55 Sudoeste 0 -- -- 83
2021-01-31 11:00:00 9.5 23 Sudoeste 40 Sudoeste 0 -- -- 87
2021-01-31 10:00:00 8.1 21 Sudoeste 43 Sudoeste 0 -- -- 91
2021-01-31 09:00:00 7.4 25 Sudoeste 38 Sudoeste 0 -- -- 89
2021-01-31 08:00:00 6.8 22 Sudoeste 35 Sudoeste 0 -- -- 87
2021-01-31 07:00:00 7.2 23 Sudoeste 38 Sudoeste 0 -- -- 85
2021-01-31 06:00:00 6.8 16 Sudoeste 26 Sudoeste 0 -- -- 82
2021-01-31 05:00:00 6.3 17 Oeste 24 Sudoeste 0 -- -- 81
2021-01-31 04:00:00 5.7 12 Sudoeste 23 Oeste 0 -- -- 75
2021-01-31 03:00:00 6.3 15 Sudoeste 27 Oeste 0 -- -- 73
2021-01-31 02:00:00 6.5 14 Oeste 32 Oeste 0 -- -- 74
2021-01-31 01:00:00 6.4 21 Oeste 37 Sudoeste 0 -- -- 79
2021-01-31 00:00:00 6.1 18 Sudoeste 34 Sudoeste 0 -- -- 82
2021-01-30 23:00:00 6.2 24 Sudoeste 43 Sudoeste 0 -- -- 78
2021-01-30 22:00:00 6.2 31 Sudoeste 50 Sudoeste 0 -- -- 78
2021-01-30 21:00:00 6.1 32 Sudoeste 44 Oeste 0 -- -- 81
2021-01-30 20:00:00 6.5 33 Oeste 46 Oeste 0 -- -- 77
2021-01-30 19:00:00 7 27 Oeste 46 Sudoeste 0 -- -- 77
2021-01-30 18:00:00 7.9 27 Oeste 62 Oeste 0 -- -- 78
2021-01-30 17:00:00 8.9 36 Oeste 66 Sudoeste 0 -- -- 71
2021-01-30 16:00:00 9.7 43 Oeste 64 Oeste 0 -- -- 71
2021-01-30 15:00:00 9.2 35 Oeste 64 Sudoeste 0 -- -- 74
2021-01-30 14:00:00 10 43 Sudoeste 61 Oeste 0 -- -- 66
2021-01-30 13:00:00 9.7 42 Oeste 71 Oeste 0 -- -- 67
2021-01-30 12:00:00 9 53 Oeste 73 Sudoeste 0 -- -- 64
2021-01-30 11:00:00 8.6 38 Oeste 55 Oeste 0 -- -- 71
2021-01-30 10:00:00 7.8 24 Oeste 45 Sudoeste 0 -- -- 83
2021-01-30 09:00:00 7 27 Sudoeste 37 Sudoeste 0 -- -- 86
2021-01-30 08:00:00 6.9 23 Sudoeste 36 Sudoeste 0 -- -- 86
2021-01-30 07:00:00 7.8 25 Sudoeste 38 Sudoeste 0.4 -- -- 87
2021-01-30 06:00:00 7.7 15 Sudoeste 36 Sudoeste 0 -- -- 91
2021-01-30 05:00:00 8 21 Sudoeste 40 Sudoeste 0.2 -- -- 90
2021-01-30 04:00:00 8.4 26 Sudoeste 47 Sudoeste 1 -- -- 87
2021-01-30 03:00:00 8.9 31 Oeste 49 Oeste 1 -- -- 85
2021-01-30 02:00:00 10.3 25 Sudoeste 40 Sudoeste 0.2 -- -- 90
2021-01-30 01:00:00 10.6 19 Sudoeste 34 Sur 0 -- -- 88
2021-01-30 00:00:00 10.6 18 Sur 31 Sur 0 -- -- 88
2021-01-29 23:00:00 10.5 16 Sudoeste 28 Sudoeste 0 -- -- 87
2021-01-29 22:00:00 10.5 22 Sudoeste 35 Sudoeste 0 -- -- 85
2021-01-29 21:00:00 10.9 13 Sudoeste 27 Sudoeste 0 -- -- 88
2021-01-29 20:00:00 11.5 8 Sudoeste 15 Sudoeste 0 -- -- 85
2021-01-29 19:00:00 12.3 8 Sudoeste 24 Sudoeste 0 -- -- 83
2021-01-29 18:00:00 14 15 Sudoeste 27 Sur 0 -- -- 76
2021-01-29 17:00:00 15 13 Sudoeste 27 Sudoeste 0 -- -- 72
2021-01-29 16:00:00 15.5 19 Sudoeste 31 Sudoeste 0 -- -- 70
2021-01-29 15:00:00 15.3 18 Sudoeste 33 Sudoeste 0 -- -- 72
2021-01-29 14:00:00 14.9 19 Sudoeste 34 Sudoeste 0 -- -- 73
2021-01-29 13:00:00 13.5 22 Sudoeste 32 Sudoeste 0 -- -- 79
2021-01-29 12:00:00 12.7 20 Sudoeste 31 Sudoeste 0 -- -- 87
2021-01-29 11:00:00 11.8 25 Sudoeste 37 Sudoeste 0 -- -- 89
2021-01-29 10:00:00 10.8 21 Sudoeste 37 Sudoeste 0 -- -- 92
2021-01-29 09:00:00 9 14 Sudoeste 23 Sur 0 -- -- 95
2021-01-29 08:00:00 8.7 10 Sudoeste 20 Sudoeste 0 -- -- 95
2021-01-29 07:00:00 8.9 13 Sudoeste 24 Sudoeste 0 -- -- 94
2021-01-29 06:00:00 8.8 15 Sudoeste 26 Sudoeste 0 -- -- 94
2021-01-29 05:00:00 9.1 12 Sudoeste 26 Sudoeste 0 -- -- 95
2021-01-29 04:00:00 9.3 15 Sudoeste 28 Sudoeste 0 -- -- 94
2021-01-29 03:00:00 9.4 9 Sudoeste 22 Sudoeste 0 -- -- 94
2021-01-29 02:00:00 10.3 11 Sudoeste 22 Sudoeste 0 -- -- 93
2021-01-29 01:00:00 10.5 14 Sudoeste 19 Sudoeste 0 -- -- 92
2021-01-29 00:00:00 11.7 10 Sur 20 Sur 0 -- -- 90
2021-01-28 23:00:00 12.9 13 Sudoeste 23 Sudoeste 0 -- -- 87
2021-01-28 22:00:00 12.7 10 Sur 16 Sur 0 -- -- 88
2021-01-28 21:00:00 12.6 12 Sudoeste 18 Sudoeste 0 -- -- 86
2021-01-28 20:00:00 12.9 11 Sudoeste 15 Sudoeste 0 -- -- 85
2021-01-28 19:00:00 14.1 9 Sudoeste 28 Oeste 0 -- -- 80
2021-01-28 18:00:00 15.4 22 Sudoeste 37 Sudoeste 0 -- -- 75
2021-01-28 17:00:00 16.4 26 Sudoeste 41 Sudoeste 0 -- -- 71
2021-01-28 16:00:00 17.3 23 Sudoeste 34 Sudoeste 0 -- -- 70
2021-01-28 15:00:00 16.7 23 Sudoeste 34 Sudoeste 0 -- -- 72
2021-01-28 14:00:00 15.4 26 Sudoeste 36 Sudoeste 0 -- -- 78
2021-01-28 13:00:00 13.2 12 Sur 29 Sudoeste 0 -- -- 90
2021-01-28 12:00:00 11.2 15 Sur 23 Sudeste 0 -- -- 93
2021-01-28 11:00:00 11.3 13 Sur 19 Sur 0 -- -- 94
2021-01-28 10:00:00 10.8 11 Sur 21 Sur 0 -- -- 96
2021-01-28 09:00:00 10.5 11 Sur 18 Sur 0 -- -- 96
2021-01-28 08:00:00 10.5 12 Sur 19 Sur 0 -- -- 96
2021-01-28 07:00:00 10.7 10 Sur 25 Sudoeste 0 -- -- 96
2021-01-28 06:00:00 10.7 15 Sudoeste 23 Sur 0 -- -- 95
2021-01-28 05:00:00 10.9 13 Sudoeste 21 Sudoeste 0 -- -- 95
2021-01-28 04:00:00 10.8 14 Sudoeste 31 Sudoeste 0 -- -- 95
2021-01-28 03:00:00 10.7 18 Sudoeste 31 Sudoeste 0 -- -- 94
2021-01-28 02:00:00 10.8 8 Sur 26 Sur 0 -- -- 94
2021-01-28 01:00:00 10.5 12 Sudoeste 22 Sudoeste 0 -- -- 93
2021-01-28 00:00:00 10.4 14 Sudoeste 22 Sudoeste 0 -- -- 93